EGMD METAR and TAF | Updated Today

EGMD METAR

Lydd Airport

Observation time: 21 min. ago

EGMD 292020Z AUTO 30005KT 9999 NCD 09/05 Q1009

Need help? Read our tutorial on how to read METARs or read the parsed version below.

Lydd Airport (EGMD) METAR

  • Weather conditions on Thu, 29 Sep 2022 20:20:00 +0000 (21 min. ago):
  • Present conditions: Dry
  • Clouds: Nil cloud detected
  • Visibility: Greater than 10 km
  • Wind: 300 degrees at 5 knots
  • Temperature: 9 celsius
  • Dew point: 5 celsius
  • Pressure: 1009 millibars
  • Remarks: None


Useful to know...

EGMD TAF

Lydd Airport

TAF EGMD 291655Z 2918/3003 32005KT 9999 SCT045 PROB30 TEMPO 2920/2923 8000 RA PROB30 TEMPO 3002/3003 8000
Observation time: 3:46 hr. ago
Need help? Read our tutorial on how to read TAFs or read the parsed version below.

Parsed version of TAF for Lydd Airport (EGMD)

  • From 29 September at 18:00 UTC, to day 30 of the month at 03:00 UTC
  • Clouds: Scattered at 1372 meters
  • Visibility: Greater than 10 km
  • Wind: 320 degrees at 5
  • Expected to arise temporarily, from 29 September at 20:00 UTC, to day 29 of the month at 23:00 UTC
    Probability of 30%
  • Visibility: 8000 meters
  • Other: Rain
  • Expected to arise temporarily, from 30 September at 02:00 UTC, to day 30 of the month at 03:00 UTC
    Probability of 30%
  • Visibility: 8000 meters